sensor_id;sensor_type;location;lat;lon;timestamp;P1;durP1;ratioP1;P2;durP2;ratioP2
66012;SDS011;52783;50.502;8.190;2022-08-19T00:00:11;19.00;;;13.25;;
66012;SDS011;52783;50.502;8.190;2022-08-19T00:02:39;22.17;;;13.80;;
66012;SDS011;52783;50.502;8.190;2022-08-19T00:05:06;16.17;;;11.48;;
66012;SDS011;52783;50.502;8.190;2022-08-19T00:07:33;16.10;;;12.95;;
66012;SDS011;52783;50.502;8.190;2022-08-19T00:09:59;16.02;;;11.68;;
66012;SDS011;52783;50.502;8.190;2022-08-19T00:12:24;21.38;;;12.65;;
66012;SDS011;52783;50.502;8.190;2022-08-19T00:14:50;17.83;;;12.50;;
66012;SDS011;52783;50.502;8.190;2022-08-19T00:17:17;20.83;;;12.85;;
66012;SDS011;52783;50.502;8.190;2022-08-19T00:19:43;21.08;;;12.48;;
66012;SDS011;52783;50.502;8.190;2022-08-19T00:22:09;19.35;;;11.73;;
66012;SDS011;52783;50.502;8.190;2022-08-19T00:24:34;19.02;;;12.00;;
66012;SDS011;52783;50.502;8.190;2022-08-19T00:27:01;18.10;;;11.63;;
66012;SDS011;52783;50.502;8.190;2022-08-19T00:29:27;15.00;;;10.57;;
66012;SDS011;52783;50.502;8.190;2022-08-19T00:31:53;14.23;;;10.18;;
66012;SDS011;52783;50.502;8.190;2022-08-19T00:34:20;14.45;;;10.93;;
66012;SDS011;52783;50.502;8.190;2022-08-19T00:36:47;13.93;;;10.23;;
66012;SDS011;52783;50.502;8.190;2022-08-19T00:39:14;18.17;;;9.57;;
66012;SDS011;52783;50.502;8.190;2022-08-19T00:41:41;13.15;;;9.77;;
66012;SDS011;52783;50.502;8.190;2022-08-19T00:44:10;15.52;;;9.20;;
66012;SDS011;52783;50.502;8.190;2022-08-19T00:46:40;15.93;;;9.68;;
66012;SDS011;52783;50.502;8.190;2022-08-19T00:52:12;13.30;;;9.13;;
66012;SDS011;52783;50.502;8.190;2022-08-19T00:54:42;12.75;;;8.73;;
66012;SDS011;52783;50.502;8.190;2022-08-19T00:57:10;13.20;;;8.98;;
66012;SDS011;52783;50.502;8.190;2022-08-19T00:59:40;14.75;;;8.85;;
66012;SDS011;52783;50.502;8.190;2022-08-19T01:02:10;14.57;;;9.10;;
66012;SDS011;52783;50.502;8.190;2022-08-19T01:04:37;12.82;;;8.30;;
66012;SDS011;52783;50.502;8.190;2022-08-19T01:07:02;14.88;;;8.93;;
66012;SDS011;52783;50.502;8.190;2022-08-19T01:09:29;11.38;;;8.48;;
66012;SDS011;52783;50.502;8.190;2022-08-19T01:11:55;13.55;;;8.80;;
66012;SDS011;52783;50.502;8.190;2022-08-19T01:14:21;15.43;;;8.63;;
66012;SDS011;52783;50.502;8.190;2022-08-19T01:16:48;13.10;;;8.40;;
66012;SDS011;52783;50.502;8.190;2022-08-19T01:19:21;12.65;;;9.25;;
66012;SDS011;52783;50.502;8.190;2022-08-19T01:21:58;16.25;;;9.48;;
66012;SDS011;52783;50.502;8.190;2022-08-19T01:24:28;14.93;;;8.82;;
66012;SDS011;52783;50.502;8.190;2022-08-19T01:26:55;12.05;;;8.80;;
66012;SDS011;52783;50.502;8.190;2022-08-19T01:29:22;15.32;;;9.50;;
66012;SDS011;52783;50.502;8.190;2022-08-19T01:31:47;13.35;;;9.90;;
66012;SDS011;52783;50.502;8.190;2022-08-19T01:34:14;15.23;;;9.73;;
66012;SDS011;52783;50.502;8.190;2022-08-19T01:36:43;14.85;;;9.75;;
66012;SDS011;52783;50.502;8.190;2022-08-19T01:39:14;15.48;;;9.45;;
66012;SDS011;52783;50.502;8.190;2022-08-19T01:41:45;11.73;;;8.95;;
66012;SDS011;52783;50.502;8.190;2022-08-19T01:44:12;13.73;;;8.70;;
66012;SDS011;52783;50.502;8.190;2022-08-19T01:46:49;12.60;;;8.20;;
66012;SDS011;52783;50.502;8.190;2022-08-19T01:49:19;14.05;;;9.27;;
66012;SDS011;52783;50.502;8.190;2022-08-19T01:51:47;13.27;;;9.63;;
66012;SDS011;52783;50.502;8.190;2022-08-19T01:54:14;12.45;;;9.77;;
66012;SDS011;52783;50.502;8.190;2022-08-19T01:56:42;14.07;;;8.98;;
66012;SDS011;52783;50.502;8.190;2022-08-19T01:59:12;16.02;;;10.65;;
66012;SDS011;52783;50.502;8.190;2022-08-19T02:01:40;19.67;;;10.35;;
66012;SDS011;52783;50.502;8.190;2022-08-19T02:04:06;13.10;;;9.82;;
66012;SDS011;52783;50.502;8.190;2022-08-19T02:06:32;13.73;;;9.05;;
66012;SDS011;52783;50.502;8.190;2022-08-19T02:08:58;12.07;;;9.57;;
66012;SDS011;52783;50.502;8.190;2022-08-19T02:11:28;14.70;;;8.88;;
66012;SDS011;52783;50.502;8.190;2022-08-19T02:14:02;12.60;;;9.35;;
66012;SDS011;52783;50.502;8.190;2022-08-19T02:16:29;16.98;;;9.30;;
66012;SDS011;52783;50.502;8.190;2022-08-19T02:18:55;18.83;;;9.40;;
66012;SDS011;52783;50.502;8.190;2022-08-19T02:21:22;13.88;;;8.45;;
66012;SDS011;52783;50.502;8.190;2022-08-19T02:23:48;12.65;;;9.07;;
66012;SDS011;52783;50.502;8.190;2022-08-19T02:26:15;17.77;;;9.40;;
66012;SDS011;52783;50.502;8.190;2022-08-19T02:28:42;14.85;;;9.15;;
66012;SDS011;52783;50.502;8.190;2022-08-19T02:31:09;15.18;;;9.52;;
66012;SDS011;52783;50.502;8.190;2022-08-19T02:33:36;14.15;;;8.85;;
66012;SDS011;52783;50.502;8.190;2022-08-19T02:36:03;14.25;;;8.32;;
66012;SDS011;52783;50.502;8.190;2022-08-19T02:38:30;12.10;;;9.02;;
66012;SDS011;52783;50.502;8.190;2022-08-19T02:41:02;16.02;;;10.13;;
66012;SDS011;52783;50.502;8.190;2022-08-19T02:43:35;11.63;;;8.68;;
66012;SDS011;52783;50.502;8.190;2022-08-19T02:46:01;12.63;;;9.20;;
66012;SDS011;52783;50.502;8.190;2022-08-19T02:48:35;11.15;;;9.07;;
66012;SDS011;52783;50.502;8.190;2022-08-19T02:51:01;12.20;;;8.80;;
66012;SDS011;52783;50.502;8.190;2022-08-19T02:53:27;13.88;;;9.50;;
66012;SDS011;52783;50.502;8.190;2022-08-19T02:55:53;11.88;;;8.30;;
66012;SDS011;52783;50.502;8.190;2022-08-19T02:58:19;14.35;;;9.48;;
66012;SDS011;52783;50.502;8.190;2022-08-19T03:00:47;15.57;;;8.60;;
66012;SDS011;52783;50.502;8.190;2022-08-19T03:03:19;16.60;;;8.80;;
66012;SDS011;52783;50.502;8.190;2022-08-19T03:05:45;11.35;;;8.15;;
66012;SDS011;52783;50.502;8.190;2022-08-19T03:08:11;14.07;;;9.27;;
66012;SDS011;52783;50.502;8.190;2022-08-19T03:10:45;14.88;;;8.18;;
66012;SDS011;52783;50.502;8.190;2022-08-19T03:13:15;11.90;;;8.05;;
66012;SDS011;52783;50.502;8.190;2022-08-19T03:15:43;12.13;;;9.57;;
66012;SDS011;52783;50.502;8.190;2022-08-19T03:18:11;15.05;;;9.90;;
66012;SDS011;52783;50.502;8.190;2022-08-19T03:20:45;15.75;;;10.80;;
66012;SDS011;52783;50.502;8.190;2022-08-19T03:23:13;15.18;;;10.95;;
66012;SDS011;52783;50.502;8.190;2022-08-19T03:25:40;19.77;;;11.45;;
66012;SDS011;52783;50.502;8.190;2022-08-19T03:28:08;16.88;;;12.13;;
66012;SDS011;52783;50.502;8.190;2022-08-19T03:30:34;19.88;;;11.55;;
66012;SDS011;52783;50.502;8.190;2022-08-19T03:33:00;20.88;;;11.43;;
66012;SDS011;52783;50.502;8.190;2022-08-19T03:35:26;14.82;;;11.13;;
66012;SDS011;52783;50.502;8.190;2022-08-19T03:37:52;14.88;;;10.30;;
66012;SDS011;52783;50.502;8.190;2022-08-19T03:40:18;14.55;;;10.15;;
66012;SDS011;52783;50.502;8.190;2022-08-19T03:42:44;17.25;;;11.38;;
66012;SDS011;52783;50.502;8.190;2022-08-19T03:45:11;17.40;;;12.10;;
66012;SDS011;52783;50.502;8.190;2022-08-19T03:47:36;16.77;;;11.48;;
66012;SDS011;52783;50.502;8.190;2022-08-19T03:50:03;15.88;;;11.27;;
66012;SDS011;52783;50.502;8.190;2022-08-19T03:52:29;17.08;;;10.90;;
66012;SDS011;52783;50.502;8.190;2022-08-19T03:54:55;14.55;;;11.15;;
66012;SDS011;52783;50.502;8.190;2022-08-19T03:57:20;16.70;;;11.57;;
66012;SDS011;52783;50.502;8.190;2022-08-19T03:59:46;17.50;;;11.30;;
66012;SDS011;52783;50.502;8.190;2022-08-19T04:02:12;16.98;;;12.00;;
66012;SDS011;52783;50.502;8.190;2022-08-19T04:04:39;20.20;;;11.98;;
66012;SDS011;52783;50.502;8.190;2022-08-19T04:07:06;18.23;;;11.68;;
66012;SDS011;52783;50.502;8.190;2022-08-19T04:09:33;17.67;;;11.48;;
66012;SDS011;52783;50.502;8.190;2022-08-19T04:12:01;15.55;;;12.15;;
66012;SDS011;52783;50.502;8.190;2022-08-19T04:14:30;16.80;;;11.90;;
66012;SDS011;52783;50.502;8.190;2022-08-19T04:16:56;17.67;;;11.90;;
66012;SDS011;52783;50.502;8.190;2022-08-19T04:19:23;17.65;;;12.48;;
66012;SDS011;52783;50.502;8.190;2022-08-19T04:21:50;19.05;;;12.15;;
66012;SDS011;52783;50.502;8.190;2022-08-19T04:24:18;20.45;;;12.90;;
66012;SDS011;52783;50.502;8.190;2022-08-19T04:26:44;24.95;;;13.60;;
66012;SDS011;52783;50.502;8.190;2022-08-19T04:29:12;21.30;;;12.88;;
66012;SDS011;52783;50.502;8.190;2022-08-19T04:31:46;18.80;;;12.80;;
66012;SDS011;52783;50.502;8.190;2022-08-19T04:34:14;17.20;;;13.07;;
66012;SDS011;52783;50.502;8.190;2022-08-19T04:36:42;19.73;;;13.93;;
66012;SDS011;52783;50.502;8.190;2022-08-19T04:39:16;18.27;;;12.85;;
66012;SDS011;52783;50.502;8.190;2022-08-19T04:41:43;22.23;;;14.60;;
66012;SDS011;52783;50.502;8.190;2022-08-19T04:44:29;22.90;;;14.85;;
66012;SDS011;52783;50.502;8.190;2022-08-19T04:46:57;18.88;;;13.77;;
66012;SDS011;52783;50.502;8.190;2022-08-19T04:49:23;20.67;;;14.13;;
66012;SDS011;52783;50.502;8.190;2022-08-19T04:51:49;22.60;;;14.90;;
66012;SDS011;52783;50.502;8.190;2022-08-19T04:54:18;30.95;;;21.17;;
66012;SDS011;52783;50.502;8.190;2022-08-19T04:56:47;25.50;;;16.75;;
66012;SDS011;52783;50.502;8.190;2022-08-19T04:59:19;24.65;;;17.42;;
66012;SDS011;52783;50.502;8.190;2022-08-19T05:01:46;31.65;;;17.73;;
66012;SDS011;52783;50.502;8.190;2022-08-19T05:04:16;27.50;;;16.02;;
66012;SDS011;52783;50.502;8.190;2022-08-19T05:06:44;25.23;;;15.43;;
66012;SDS011;52783;50.502;8.190;2022-08-19T05:09:12;21.40;;;15.15;;
66012;SDS011;52783;50.502;8.190;2022-08-19T05:11:38;23.83;;;15.35;;
66012;SDS011;52783;50.502;8.190;2022-08-19T05:14:04;23.52;;;14.90;;
66012;SDS011;52783;50.502;8.190;2022-08-19T05:16:30;22.65;;;16.27;;
66012;SDS011;52783;50.502;8.190;2022-08-19T05:18:56;24.98;;;15.02;;
66012;SDS011;52783;50.502;8.190;2022-08-19T05:21:40;23.27;;;15.65;;
66012;SDS011;52783;50.502;8.190;2022-08-19T05:24:25;30.45;;;16.02;;
66012;SDS011;52783;50.502;8.190;2022-08-19T05:26:52;23.30;;;15.73;;
66012;SDS011;52783;50.502;8.190;2022-08-19T05:29:21;23.95;;;15.60;;
66012;SDS011;52783;50.502;8.190;2022-08-19T05:31:49;24.75;;;14.73;;
66012;SDS011;52783;50.502;8.190;2022-08-19T05:34:16;24.88;;;14.02;;
66012;SDS011;52783;50.502;8.190;2022-08-19T05:36:43;22.23;;;14.68;;
66012;SDS011;52783;50.502;8.190;2022-08-19T05:39:15;19.83;;;13.57;;
66012;SDS011;52783;50.502;8.190;2022-08-19T05:41:45;20.85;;;15.32;;
66012;SDS011;52783;50.502;8.190;2022-08-19T05:44:12;19.90;;;13.25;;
66012;SDS011;52783;50.502;8.190;2022-08-19T05:46:38;19.55;;;14.43;;
66012;SDS011;52783;50.502;8.190;2022-08-19T05:49:05;21.85;;;14.07;;
66012;SDS011;52783;50.502;8.190;2022-08-19T05:51:31;20.60;;;13.35;;
66012;SDS011;52783;50.502;8.190;2022-08-19T05:53:59;24.88;;;13.23;;
66012;SDS011;52783;50.502;8.190;2022-08-19T05:56:25;19.25;;;13.65;;
66012;SDS011;52783;50.502;8.190;2022-08-19T05:58:51;16.05;;;12.75;;
66012;SDS011;52783;50.502;8.190;2022-08-19T06:01:19;22.48;;;13.15;;
66012;SDS011;52783;50.502;8.190;2022-08-19T06:03:45;19.10;;;12.90;;
66012;SDS011;52783;50.502;8.190;2022-08-19T06:06:13;19.30;;;12.80;;
66012;SDS011;52783;50.502;8.190;2022-08-19T06:08:39;15.95;;;10.65;;
66012;SDS011;52783;50.502;8.190;2022-08-19T06:13:44;18.15;;;10.95;;
66012;SDS011;52783;50.502;8.190;2022-08-19T06:16:12;14.45;;;10.68;;
66012;SDS011;52783;50.502;8.190;2022-08-19T06:18:45;17.45;;;10.48;;
66012;SDS011;52783;50.502;8.190;2022-08-19T06:21:11;15.05;;;10.05;;
66012;SDS011;52783;50.502;8.190;2022-08-19T06:23:36;15.25;;;9.85;;
66012;SDS011;52783;50.502;8.190;2022-08-19T06:26:02;17.48;;;10.90;;
66012;SDS011;52783;50.502;8.190;2022-08-19T06:28:29;14.10;;;9.88;;
66012;SDS011;52783;50.502;8.190;2022-08-19T06:30:54;15.15;;;9.10;;
66012;SDS011;52783;50.502;8.190;2022-08-19T06:33:20;18.27;;;9.93;;
66012;SDS011;52783;50.502;8.190;2022-08-19T06:35:45;14.98;;;10.15;;
66012;SDS011;52783;50.502;8.190;2022-08-19T06:38:11;15.57;;;10.27;;
66012;SDS011;52783;50.502;8.190;2022-08-19T06:40:37;14.55;;;9.90;;
66012;SDS011;52783;50.502;8.190;2022-08-19T06:43:03;13.82;;;9.13;;
66012;SDS011;52783;50.502;8.190;2022-08-19T06:45:28;14.05;;;8.43;;
66012;SDS011;52783;50.502;8.190;2022-08-19T06:47:55;13.05;;;8.45;;
66012;SDS011;52783;50.502;8.190;2022-08-19T06:50:21;12.93;;;7.68;;
66012;SDS011;52783;50.502;8.190;2022-08-19T06:52:47;15.23;;;7.97;;
66012;SDS011;52783;50.502;8.190;2022-08-19T06:55:14;12.60;;;7.82;;
66012;SDS011;52783;50.502;8.190;2022-08-19T06:57:40;12.07;;;7.65;;
66012;SDS011;52783;50.502;8.190;2022-08-19T07:00:08;12.70;;;7.85;;
66012;SDS011;52783;50.502;8.190;2022-08-19T07:02:41;19.27;;;8.13;;
66012;SDS011;52783;50.502;8.190;2022-08-19T07:05:07;14.70;;;8.20;;
66012;SDS011;52783;50.502;8.190;2022-08-19T07:07:33;14.15;;;8.57;;
66012;SDS011;52783;50.502;8.190;2022-08-19T07:09:59;25.90;;;8.30;;
66012;SDS011;52783;50.502;8.190;2022-08-19T07:12:25;24.23;;;8.23;;
66012;SDS011;52783;50.502;8.190;2022-08-19T07:14:52;30.48;;;8.95;;
66012;SDS011;52783;50.502;8.190;2022-08-19T07:17:18;22.88;;;7.72;;
66012;SDS011;52783;50.502;8.190;2022-08-19T07:19:44;16.92;;;7.88;;
66012;SDS011;52783;50.502;8.190;2022-08-19T07:22:10;15.20;;;7.30;;
66012;SDS011;52783;50.502;8.190;2022-08-19T07:24:36;9.32;;;6.88;;
66012;SDS011;52783;50.502;8.190;2022-08-19T07:27:05;11.07;;;7.03;;
66012;SDS011;52783;50.502;8.190;2022-08-19T07:29:32;14.45;;;7.47;;
66012;SDS011;52783;50.502;8.190;2022-08-19T07:31:59;17.73;;;6.93;;
66012;SDS011;52783;50.502;8.190;2022-08-19T07:34:26;10.77;;;6.90;;
66012;SDS011;52783;50.502;8.190;2022-08-19T07:36:53;13.70;;;6.60;;
66012;SDS011;52783;50.502;8.190;2022-08-19T07:39:22;11.55;;;7.28;;
66012;SDS011;52783;50.502;8.190;2022-08-19T07:41:50;12.70;;;8.02;;
66012;SDS011;52783;50.502;8.190;2022-08-19T07:44:16;15.05;;;8.25;;
66012;SDS011;52783;50.502;8.190;2022-08-19T07:46:45;12.55;;;8.05;;
66012;SDS011;52783;50.502;8.190;2022-08-19T07:49:14;10.98;;;6.88;;
66012;SDS011;52783;50.502;8.190;2022-08-19T07:51:57;17.80;;;8.18;;
66012;SDS011;52783;50.502;8.190;2022-08-19T07:54:26;15.27;;;8.73;;
66012;SDS011;52783;50.502;8.190;2022-08-19T07:56:53;9.85;;;7.22;;
66012;SDS011;52783;50.502;8.190;2022-08-19T07:59:19;9.52;;;6.97;;
66012;SDS011;52783;50.502;8.190;2022-08-19T08:01:45;11.52;;;7.25;;
66012;SDS011;52783;50.502;8.190;2022-08-19T08:04:12;12.45;;;9.10;;
66012;SDS011;52783;50.502;8.190;2022-08-19T08:06:57;10.40;;;7.43;;
66012;SDS011;52783;50.502;8.190;2022-08-19T08:09:42;12.48;;;9.27;;
66012;SDS011;52783;50.502;8.190;2022-08-19T08:12:10;14.82;;;10.98;;
66012;SDS011;52783;50.502;8.190;2022-08-19T08:17:13;15.70;;;13.15;;
66012;SDS011;52783;50.502;8.190;2022-08-19T08:19:43;20.13;;;10.13;;
66012;SDS011;52783;50.502;8.190;2022-08-19T08:22:10;14.55;;;10.63;;
66012;SDS011;52783;50.502;8.190;2022-08-19T08:24:59;19.42;;;11.80;;
66012;SDS011;52783;50.502;8.190;2022-08-19T08:27:27;15.57;;;10.30;;
66012;SDS011;52783;50.502;8.190;2022-08-19T08:29:54;12.50;;;9.70;;
66012;SDS011;52783;50.502;8.190;2022-08-19T08:32:19;15.93;;;10.52;;
66012;SDS011;52783;50.502;8.190;2022-08-19T08:34:45;16.52;;;10.32;;
66012;SDS011;52783;50.502;8.190;2022-08-19T08:37:10;15.05;;;9.65;;
66012;SDS011;52783;50.502;8.190;2022-08-19T08:39:36;17.42;;;9.95;;
66012;SDS011;52783;50.502;8.190;2022-08-19T08:42:07;20.95;;;12.98;;
66012;SDS011;52783;50.502;8.190;2022-08-19T08:44:40;15.18;;;11.57;;
66012;SDS011;52783;50.502;8.190;2022-08-19T08:47:15;14.93;;;11.48;;
66012;SDS011;52783;50.502;8.190;2022-08-19T08:52:22;18.70;;;11.73;;
66012;SDS011;52783;50.502;8.190;2022-08-19T08:54:52;16.05;;;11.77;;
66012;SDS011;52783;50.502;8.190;2022-08-19T08:57:23;18.50;;;11.82;;
66012;SDS011;52783;50.502;8.190;2022-08-19T08:59:58;18.25;;;12.40;;
66012;SDS011;52783;50.502;8.190;2022-08-19T09:02:25;26.35;;;13.60;;
66012;SDS011;52783;50.502;8.190;2022-08-19T09:04:51;19.23;;;13.30;;
66012;SDS011;52783;50.502;8.190;2022-08-19T09:07:22;19.83;;;13.25;;
66012;SDS011;52783;50.502;8.190;2022-08-19T09:10:22;13.45;;;12.00;;
66012;SDS011;52783;50.502;8.190;2022-08-19T09:13:15;17.10;;;13.05;;
66012;SDS011;52783;50.502;8.190;2022-08-19T09:16:03;18.33;;;11.50;;
66012;SDS011;52783;50.502;8.190;2022-08-19T09:18:38;16.27;;;9.60;;
66012;SDS011;52783;50.502;8.190;2022-08-19T09:21:07;15.65;;;10.18;;
66012;SDS011;52783;50.502;8.190;2022-08-19T09:23:34;14.00;;;11.40;;
66012;SDS011;52783;50.502;8.190;2022-08-19T09:26:00;18.88;;;11.80;;
66012;SDS011;52783;50.502;8.190;2022-08-19T09:28:26;14.23;;;10.82;;
66012;SDS011;52783;50.502;8.190;2022-08-19T09:30:52;15.52;;;11.20;;
66012;SDS011;52783;50.502;8.190;2022-08-19T09:33:18;16.08;;;11.40;;
66012;SDS011;52783;50.502;8.190;2022-08-19T09:35:44;15.57;;;11.20;;
66012;SDS011;52783;50.502;8.190;2022-08-19T09:38:10;18.23;;;11.27;;
66012;SDS011;52783;50.502;8.190;2022-08-19T09:40:35;12.43;;;9.60;;
66012;SDS011;52783;50.502;8.190;2022-08-19T09:43:01;14.40;;;8.70;;
66012;SDS011;52783;50.502;8.190;2022-08-19T09:45:27;11.60;;;8.82;;
66012;SDS011;52783;50.502;8.190;2022-08-19T09:47:53;11.07;;;8.85;;
66012;SDS011;52783;50.502;8.190;2022-08-19T09:50:19;13.63;;;9.02;;
66012;SDS011;52783;50.502;8.190;2022-08-19T09:52:45;11.32;;;8.70;;
66012;SDS011;52783;50.502;8.190;2022-08-19T09:55:11;15.60;;;8.15;;
66012;SDS011;52783;50.502;8.190;2022-08-19T09:57:37;10.10;;;8.40;;
66012;SDS011;52783;50.502;8.190;2022-08-19T10:00:04;11.48;;;7.75;;
66012;SDS011;52783;50.502;8.190;2022-08-19T10:02:32;11.95;;;8.80;;
66012;SDS011;52783;50.502;8.190;2022-08-19T10:04:58;11.30;;;7.88;;
66012;SDS011;52783;50.502;8.190;2022-08-19T10:07:42;10.88;;;8.45;;
66012;SDS011;52783;50.502;8.190;2022-08-19T10:10:08;13.55;;;7.82;;
66012;SDS011;52783;50.502;8.190;2022-08-19T10:12:34;11.52;;;7.22;;
66012;SDS011;52783;50.502;8.190;2022-08-19T10:15:01;11.93;;;7.72;;
66012;SDS011;52783;50.502;8.190;2022-08-19T10:17:27;14.20;;;7.40;;
66012;SDS011;52783;50.502;8.190;2022-08-19T10:19:54;10.23;;;7.15;;
66012;SDS011;52783;50.502;8.190;2022-08-19T10:22:19;15.52;;;6.80;;
66012;SDS011;52783;50.502;8.190;2022-08-19T10:24:45;9.35;;;6.80;;
66012;SDS011;52783;50.502;8.190;2022-08-19T10:27:11;10.27;;;5.70;;
66012;SDS011;52783;50.502;8.190;2022-08-19T10:29:38;8.02;;;6.03;;
66012;SDS011;52783;50.502;8.190;2022-08-19T10:32:04;11.00;;;6.03;;
66012;SDS011;52783;50.502;8.190;2022-08-19T10:34:32;12.85;;;6.40;;
66012;SDS011;52783;50.502;8.190;2022-08-19T10:36:58;7.57;;;6.03;;
66012;SDS011;52783;50.502;8.190;2022-08-19T10:39:25;13.52;;;6.53;;
66012;SDS011;52783;50.502;8.190;2022-08-19T10:41:54;9.65;;;6.05;;
66012;SDS011;52783;50.502;8.190;2022-08-19T10:44:21;9.13;;;5.82;;
66012;SDS011;52783;50.502;8.190;2022-08-19T10:46:48;6.28;;;5.25;;
66012;SDS011;52783;50.502;8.190;2022-08-19T10:49:14;6.97;;;5.22;;
66012;SDS011;52783;50.502;8.190;2022-08-19T10:51:40;8.35;;;5.03;;
66012;SDS011;52783;50.502;8.190;2022-08-19T10:54:25;9.55;;;5.80;;
66012;SDS011;52783;50.502;8.190;2022-08-19T10:57:09;10.27;;;5.15;;
66012;SDS011;52783;50.502;8.190;2022-08-19T10:59:35;5.65;;;4.45;;
66012;SDS011;52783;50.502;8.190;2022-08-19T11:02:02;5.85;;;4.55;;
66012;SDS011;52783;50.502;8.190;2022-08-19T11:04:29;10.38;;;5.03;;
66012;SDS011;52783;50.502;8.190;2022-08-19T11:06:56;6.55;;;4.90;;
66012;SDS011;52783;50.502;8.190;2022-08-19T11:09:23;6.97;;;4.93;;
66012;SDS011;52783;50.502;8.190;2022-08-19T11:11:51;10.52;;;4.57;;
66012;SDS011;52783;50.502;8.190;2022-08-19T11:14:17;18.05;;;5.13;;
66012;SDS011;52783;50.502;8.190;2022-08-19T11:16:45;7.82;;;5.13;;
66012;SDS011;52783;50.502;8.190;2022-08-19T11:19:14;9.38;;;5.18;;
66012;SDS011;52783;50.502;8.190;2022-08-19T11:21:44;6.60;;;4.78;;
66012;SDS011;52783;50.502;8.190;2022-08-19T11:24:15;4.03;;;3.45;;
66012;SDS011;52783;50.502;8.190;2022-08-19T11:26:43;4.97;;;4.15;;
66012;SDS011;52783;50.502;8.190;2022-08-19T11:29:10;7.47;;;4.40;;
66012;SDS011;52783;50.502;8.190;2022-08-19T11:31:38;16.70;;;4.43;;
66012;SDS011;52783;50.502;8.190;2022-08-19T11:34:07;12.77;;;4.32;;
66012;SDS011;52783;50.502;8.190;2022-08-19T11:36:36;5.50;;;3.80;;
66012;SDS011;52783;50.502;8.190;2022-08-19T11:39:05;10.27;;;3.72;;
66012;SDS011;52783;50.502;8.190;2022-08-19T11:41:31;5.90;;;3.20;;
66012;SDS011;52783;50.502;8.190;2022-08-19T11:43:57;8.45;;;3.50;;
66012;SDS011;52783;50.502;8.190;2022-08-19T11:46:24;5.22;;;3.35;;
66012;SDS011;52783;50.502;8.190;2022-08-19T11:48:54;3.33;;;3.10;;
66012;SDS011;52783;50.502;8.190;2022-08-19T11:51:21;6.65;;;3.70;;
66012;SDS011;52783;50.502;8.190;2022-08-19T11:53:49;8.60;;;4.00;;
66012;SDS011;52783;50.502;8.190;2022-08-19T11:56:16;7.25;;;4.80;;
66012;SDS011;52783;50.502;8.190;2022-08-19T11:58:42;45.17;;;7.13;;
66012;SDS011;52783;50.502;8.190;2022-08-19T12:01:08;4.55;;;3.45;;
66012;SDS011;52783;50.502;8.190;2022-08-19T12:03:37;3.47;;;2.95;;
66012;SDS011;52783;50.502;8.190;2022-08-19T12:06:07;4.20;;;3.17;;
66012;SDS011;52783;50.502;8.190;2022-08-19T12:08:36;4.22;;;3.40;;
66012;SDS011;52783;50.502;8.190;2022-08-19T12:11:02;4.28;;;3.50;;
66012;SDS011;52783;50.502;8.190;2022-08-19T12:13:28;7.30;;;3.25;;
66012;SDS011;52783;50.502;8.190;2022-08-19T12:15:55;5.03;;;3.38;;
66012;SDS011;52783;50.502;8.190;2022-08-19T12:18:20;8.45;;;3.35;;
66012;SDS011;52783;50.502;8.190;2022-08-19T12:20:46;6.13;;;3.47;;
66012;SDS011;52783;50.502;8.190;2022-08-19T12:23:12;4.43;;;3.65;;
66012;SDS011;52783;50.502;8.190;2022-08-19T12:25:43;6.63;;;3.45;;
66012;SDS011;52783;50.502;8.190;2022-08-19T12:28:20;8.55;;;3.95;;
66012;SDS011;52783;50.502;8.190;2022-08-19T12:30:47;5.43;;;3.30;;
66012;SDS011;52783;50.502;8.190;2022-08-19T12:33:15;4.88;;;3.33;;
66012;SDS011;52783;50.502;8.190;2022-08-19T12:35:41;2.95;;;2.72;;
66012;SDS011;52783;50.502;8.190;2022-08-19T12:38:08;4.68;;;3.42;;
66012;SDS011;52783;50.502;8.190;2022-08-19T12:40:35;5.18;;;3.05;;
66012;SDS011;52783;50.502;8.190;2022-08-19T12:43:00;4.22;;;3.05;;
66012;SDS011;52783;50.502;8.190;2022-08-19T12:45:26;4.30;;;2.90;;
66012;SDS011;52783;50.502;8.190;2022-08-19T12:47:52;7.47;;;3.22;;
66012;SDS011;52783;50.502;8.190;2022-08-19T12:50:18;4.15;;;3.10;;
66012;SDS011;52783;50.502;8.190;2022-08-19T12:52:46;4.13;;;2.83;;
66012;SDS011;52783;50.502;8.190;2022-08-19T12:55:13;3.55;;;3.00;;
66012;SDS011;52783;50.502;8.190;2022-08-19T12:57:39;3.88;;;3.10;;
66012;SDS011;52783;50.502;8.190;2022-08-19T13:00:07;9.05;;;3.30;;
66012;SDS011;52783;50.502;8.190;2022-08-19T13:02:37;43.20;;;5.70;;
66012;SDS011;52783;50.502;8.190;2022-08-19T13:05:03;4.75;;;3.25;;
66012;SDS011;52783;50.502;8.190;2022-08-19T13:07:32;5.18;;;3.30;;
66012;SDS011;52783;50.502;8.190;2022-08-19T13:09:57;3.45;;;3.15;;
66012;SDS011;52783;50.502;8.190;2022-08-19T13:12:23;3.65;;;2.90;;
66012;SDS011;52783;50.502;8.190;2022-08-19T13:14:51;6.82;;;2.92;;
66012;SDS011;52783;50.502;8.190;2022-08-19T13:17:17;3.38;;;2.92;;
66012;SDS011;52783;50.502;8.190;2022-08-19T13:19:43;6.88;;;3.40;;
66012;SDS011;52783;50.502;8.190;2022-08-19T13:22:09;6.25;;;3.30;;
66012;SDS011;52783;50.502;8.190;2022-08-19T13:24:35;6.53;;;3.75;;
66012;SDS011;52783;50.502;8.190;2022-08-19T13:27:01;9.88;;;3.80;;
66012;SDS011;52783;50.502;8.190;2022-08-19T13:29:27;3.80;;;2.90;;
66012;SDS011;52783;50.502;8.190;2022-08-19T13:32:11;5.22;;;2.92;;
66012;SDS011;52783;50.502;8.190;2022-08-19T13:34:55;3.28;;;2.97;;
66012;SDS011;52783;50.502;8.190;2022-08-19T13:37:21;4.03;;;3.10;;
66012;SDS011;52783;50.502;8.190;2022-08-19T13:40:07;7.22;;;3.40;;
66012;SDS011;52783;50.502;8.190;2022-08-19T13:42:39;3.25;;;3.00;;
66012;SDS011;52783;50.502;8.190;2022-08-19T13:45:06;4.28;;;2.90;;
66012;SDS011;52783;50.502;8.190;2022-08-19T13:47:33;4.47;;;2.72;;
66012;SDS011;52783;50.502;8.190;2022-08-19T13:50:00;3.05;;;2.70;;
66012;SDS011;52783;50.502;8.190;2022-08-19T13:52:28;4.22;;;2.70;;
66012;SDS011;52783;50.502;8.190;2022-08-19T13:54:54;6.32;;;2.90;;
66012;SDS011;52783;50.502;8.190;2022-08-19T13:57:21;2.67;;;2.47;;
66012;SDS011;52783;50.502;8.190;2022-08-19T13:59:47;5.82;;;2.75;;
66012;SDS011;52783;50.502;8.190;2022-08-19T14:02:13;3.05;;;2.75;;
66012;SDS011;52783;50.502;8.190;2022-08-19T14:04:38;6.40;;;2.88;;
66012;SDS011;52783;50.502;8.190;2022-08-19T14:07:04;6.10;;;3.00;;
66012;SDS011;52783;50.502;8.190;2022-08-19T14:09:29;4.95;;;2.90;;
66012;SDS011;52783;50.502;8.190;2022-08-19T14:11:55;6.20;;;2.92;;
66012;SDS011;52783;50.502;8.190;2022-08-19T14:14:21;4.38;;;2.88;;
66012;SDS011;52783;50.502;8.190;2022-08-19T14:16:47;9.95;;;2.83;;
66012;SDS011;52783;50.502;8.190;2022-08-19T14:19:13;11.45;;;3.40;;
66012;SDS011;52783;50.502;8.190;2022-08-19T14:21:39;5.78;;;3.00;;
66012;SDS011;52783;50.502;8.190;2022-08-19T14:24:06;7.65;;;2.55;;
66012;SDS011;52783;50.502;8.190;2022-08-19T14:26:33;5.25;;;2.80;;
66012;SDS011;52783;50.502;8.190;2022-08-19T14:28:58;6.07;;;3.25;;
66012;SDS011;52783;50.502;8.190;2022-08-19T14:31:24;5.43;;;3.20;;
66012;SDS011;52783;50.502;8.190;2022-08-19T14:33:50;4.38;;;3.20;;
66012;SDS011;52783;50.502;8.190;2022-08-19T14:36:17;10.60;;;3.97;;
66012;SDS011;52783;50.502;8.190;2022-08-19T14:38:44;14.50;;;4.10;;
66012;SDS011;52783;50.502;8.190;2022-08-19T14:43:46;8.02;;;3.65;;
66012;SDS011;52783;50.502;8.190;2022-08-19T14:46:18;15.27;;;4.10;;
66012;SDS011;52783;50.502;8.190;2022-08-19T14:48:47;9.68;;;4.15;;
66012;SDS011;52783;50.502;8.190;2022-08-19T14:51:13;9.75;;;3.53;;